Time;durP1;ratioP1;P1;durP2;ratioP2;P2;SDS_P1;SDS_P2;PMS_P1;PMS_P2;Temp;Humidity;BMP_temperature;BMP_pressure;BME280_temperature;BME280_humidity;BME280_pressure;Samples;Min_cycle;Max_cycle;Signal;HPM_P1;HPM_P2
2021/04/02 00:00:47;;;;;;;15.50;8.43;;;;;;;9.22;47.12;94739.56;5035130;28;20432;-82
2021/04/02 00:03:14;;;;;;;9.10;6.77;;;;;;;9.22;46.87;94729.06;5034777;28;20491;-81
2021/04/02 00:05:40;;;;;;;10.97;7.90;;;;;;;9.27;47.48;94729.56;5035024;28;20898;-82
2021/04/02 00:08:07;;;;;;;10.60;7.00;;;;;;;9.22;47.45;94734.31;5034728;28;20446;-81
2021/04/02 00:10:39;;;;;;;8.13;6.97;;;;;;;9.27;47.42;94724.31;5034646;28;20501;-80
2021/04/02 00:13:05;;;;;;;9.83;7.00;;;;;;;9.26;47.20;94720.03;5034517;28;20432;-81
2021/04/02 00:15:31;;;;;;;10.67;8.30;;;;;;;9.28;47.05;94712.06;5034926;28;20434;-81
2021/04/02 00:17:58;;;;;;;8.60;6.77;;;;;;;9.31;47.32;94725.72;5034595;28;20440;-80
2021/04/02 00:20:25;;;;;;;13.10;6.17;;;;;;;9.32;47.64;94716.09;5034265;28;20940;-81
2021/04/02 00:22:51;;;;;;;11.93;7.40;;;;;;;9.38;47.34;94718.19;5034715;28;20447;-81
2021/04/02 00:25:17;;;;;;;13.00;8.00;;;;;;;9.33;47.94;94712.50;5034263;28;20872;-81
2021/04/02 00:27:44;;;;;;;7.67;6.80;;;;;;;9.34;47.69;94710.72;5034370;28;20459;-82
2021/04/02 00:30:14;;;;;;;13.30;8.40;;;;;;;9.30;47.74;94713.59;5034305;28;20489;-81
2021/04/02 00:32:41;;;;;;;11.77;8.40;;;;;;;9.27;48.08;94707.78;5033727;28;20451;-81
2021/04/02 00:35:10;;;;;;;9.43;7.23;;;;;;;9.28;47.83;94709.44;5033816;28;20470;-81
2021/04/02 00:37:36;;;;;;;7.97;6.97;;;;;;;9.28;47.99;94702.41;4983408;28;20455;-81
2021/04/02 00:40:05;;;;;;;10.77;7.63;;;;;;;9.22;47.96;94696.84;5034264;28;20439;-82
2021/04/02 00:42:31;;;;;;;8.27;7.13;;;;;;;9.21;48.27;94697.78;5033983;28;20442;-81
2021/04/02 00:44:58;;;;;;;9.93;7.07;;;;;;;9.14;48.63;94687.00;5033890;28;20478;-81
2021/04/02 00:47:24;;;;;;;10.27;6.90;;;;;;;9.13;48.89;94690.56;5033555;28;20428;-82
2021/04/02 00:49:50;;;;;;;10.67;7.33;;;;;;;9.04;49.12;94691.34;5033996;28;20443;-81
2021/04/02 00:52:17;;;;;;;11.77;7.20;;;;;;;9.11;49.07;94689.88;5015521;28;20444;-82
2021/04/02 00:54:44;;;;;;;9.33;7.03;;;;;;;9.10;49.11;94680.38;5033542;28;21009;-82
2021/04/02 00:57:10;;;;;;;7.70;6.77;;;;;;;9.07;48.81;94677.16;5033422;28;20443;-81
2021/04/02 00:59:36;;;;;;;11.87;6.53;;;;;;;9.12;49.54;94693.31;5033436;28;20955;-82
2021/04/02 01:02:03;;;;;;;14.63;8.43;;;;;;;9.06;48.80;94686.81;5033462;28;20972;-82
2021/04/02 01:04:29;;;;;;;11.53;7.47;;;;;;;9.03;48.77;94678.38;5033951;28;20472;-82
2021/04/02 01:06:57;;;;;;;11.90;6.50;;;;;;;9.06;48.96;94684.19;5033365;28;20444;-82
2021/04/02 01:09:24;;;;;;;8.50;7.10;;;;;;;9.03;48.86;94676.59;5033652;28;20439;-81
2021/04/02 01:11:51;;;;;;;11.03;6.97;;;;;;;9.03;48.99;94681.00;5034136;28;20537;-81
2021/04/02 01:14:18;;;;;;;10.83;7.23;;;;;;;9.00;49.43;94674.22;5033322;28;20809;-81
2021/04/02 01:16:45;;;;;;;9.13;7.10;;;;;;;8.98;48.98;94670.91;5033572;28;20911;-82
2021/04/02 01:19:17;;;;;;;14.07;6.90;;;;;;;8.91;49.26;94670.56;5015250;28;20432;-81
2021/04/02 01:21:47;;;;;;;11.83;7.10;;;;;;;8.89;49.27;94675.09;5034397;28;20427;-81
2021/04/02 01:24:29;;;;;;;11.33;6.50;;;;;;;8.88;49.38;94669.97;5033432;28;20448;-82
2021/04/02 01:27:21;;;;;;;10.27;7.90;;;;;;;8.89;49.36;94666.41;5033875;28;20435;-82
2021/04/02 01:29:54;;;;;;;8.57;6.80;;;;;;;8.87;49.38;94663.09;5033876;28;20450;-81
2021/04/02 01:32:25;;;;;;;12.00;7.10;;;;;;;8.82;49.25;94660.03;5034079;28;20540;-81
2021/04/02 01:34:57;;;;;;;10.87;7.53;;;;;;;8.81;49.37;94655.75;5033763;28;20805;-80
2021/04/02 01:37:28;;;;;;;12.47;6.60;;;;;;;8.72;49.69;94652.09;5033929;28;20459;-82
2021/04/02 01:39:58;;;;;;;8.63;7.23;;;;;;;8.82;49.40;94657.41;5033731;28;20930;-81
2021/04/02 01:42:27;;;;;;;12.40;6.70;;;;;;;8.78;49.64;94648.16;4998925;28;20447;-81
2021/04/02 01:44:55;;;;;;;7.27;6.53;;;;;;;8.76;49.76;94644.84;5033713;28;20483;-82
2021/04/02 01:47:24;;;;;;;6.80;6.10;;;;;;;8.76;49.73;94642.22;5033772;28;20443;-82
2021/04/02 01:49:51;;;;;;;7.43;6.07;;;;;;;8.75;49.40;94643.19;5033387;28;20926;-81
2021/04/02 01:52:21;;;;;;;11.83;6.30;;;;;;;8.72;49.79;94638.19;5033330;28;20486;-82
2021/04/02 01:54:49;;;;;;;10.40;7.23;;;;;;;8.75;49.92;94630.09;5033043;28;20507;-81
2021/04/02 01:57:17;;;;;;;8.30;6.27;;;;;;;8.67;49.63;94623.72;5033495;28;20435;-81
2021/04/02 01:59:44;;;;;;;10.80;6.93;;;;;;;8.70;49.99;94627.84;5033237;28;20458;-81
2021/04/02 02:02:11;;;;;;;10.77;7.40;;;;;;;8.73;50.06;94632.00;5014623;28;20983;-81
2021/04/02 02:04:39;;;;;;;11.80;8.60;;;;;;;8.77;49.66;94629.00;5033157;28;20483;-82
2021/04/02 02:07:06;;;;;;;8.43;7.30;;;;;;;8.80;50.08;94628.75;5033645;28;20943;-82
2021/04/02 02:09:36;;;;;;;10.37;7.43;;;;;;;8.85;49.66;94631.00;5032693;28;20439;-82
2021/04/02 02:12:08;;;;;;;8.90;6.97;;;;;;;8.81;50.30;94634.81;5036251;28;20431;-82
2021/04/02 02:14:37;;;;;;;31.37;16.00;;;;;;;8.69;49.69;94627.03;5034572;28;20439;-82
2021/04/02 02:17:10;;;;;;;19.50;12.97;;;;;;;8.46;50.91;94630.69;5036195;28;20437;-82
2021/04/02 02:19:40;;;;;;;51.93;22.20;;;;;;;8.27;51.59;94625.22;5036685;28;20832;-82
2021/04/02 02:22:09;;;;;;;29.33;15.23;;;;;;;8.19;52.29;94627.63;5036142;28;20427;-82
2021/04/02 02:24:36;;;;;;;20.97;11.77;;;;;;;8.14;52.81;94635.00;5001504;28;20478;-82
2021/04/02 02:27:05;;;;;;;15.00;11.07;;;;;;;8.12;52.43;94635.13;5036516;28;20446;-82
2021/04/02 02:29:32;;;;;;;19.47;11.17;;;;;;;8.16;52.47;94631.31;5036326;28;20465;-81
2021/04/02 02:31:58;;;;;;;21.17;10.17;;;;;;;8.13;53.04;94628.13;5036688;28;20442;-82
2021/04/02 02:34:25;;;;;;;14.60;10.70;;;;;;;8.15;52.96;94627.03;5017796;28;20442;-82
2021/04/02 02:36:52;;;;;;;13.90;10.20;;;;;;;8.16;52.38;94628.69;5036147;28;20509;-81
2021/04/02 02:39:18;;;;;;;16.60;10.80;;;;;;;8.15;52.82;94631.44;5035896;28;20897;-81
2021/04/02 02:41:45;;;;;;;15.47;10.50;;;;;;;8.08;52.77;94637.13;5035967;28;20485;-82
2021/04/02 02:44:12;;;;;;;17.13;8.60;;;;;;;8.07;53.87;94634.63;5036210;28;20458;-82
2021/04/02 02:46:39;;;;;;;16.73;8.17;;;;;;;7.97;54.21;94645.00;5035838;28;20533;-81
2021/04/02 02:49:11;;;;;;;14.13;7.60;;;;;;;7.90;55.42;94635.16;5036175;28;20423;-82
2021/04/02 02:51:40;;;;;;;11.43;8.23;;;;;;;7.86;55.79;94636.34;5036291;28;20434;-82
2021/04/02 02:54:10;;;;;;;8.23;6.83;;;;;;;7.85;56.22;94639.91;5036057;28;20454;-82
2021/04/02 02:56:39;;;;;;;9.70;7.00;;;;;;;7.64;56.77;94637.19;5035938;28;20488;-82
2021/04/02 02:59:10;;;;;;;10.60;7.30;;;;;;;7.66;57.34;94633.50;5035595;28;20430;-82
2021/04/02 03:01:38;;;;;;;8.90;7.27;;;;;;;7.64;56.74;94631.94;5035990;28;21004;-82
2021/04/02 03:04:07;;;;;;;8.60;7.70;;;;;;;7.61;57.64;94624.38;5035413;28;20497;-82
2021/04/02 03:06:37;;;;;;;14.63;7.43;;;;;;;7.59;57.59;94616.66;5035333;28;20470;-82
2021/04/02 03:09:05;;;;;;;10.97;8.37;;;;;;;7.61;57.24;94612.13;5035795;28;21212;-82
2021/04/02 03:11:34;;;;;;;10.47;8.23;;;;;;;7.64;57.46;94617.13;5035329;28;20492;-82
2021/04/02 03:14:02;;;;;;;11.50;7.70;;;;;;;7.67;57.89;94623.88;5035789;28;20423;-82
2021/04/02 03:16:29;;;;;;;10.43;7.20;;;;;;;7.71;57.65;94620.06;5035518;28;20454;-82
2021/04/02 03:18:58;;;;;;;14.60;8.27;;;;;;;7.76;57.45;94615.31;5036373;28;20431;-82
2021/04/02 03:21:25;;;;;;;8.03;7.20;;;;;;;7.77;56.83;94623.03;5035364;28;20437;-82
2021/04/02 03:23:53;;;;;;;10.87;7.10;;;;;;;7.78;57.70;94623.88;5034211;28;20430;-82
2021/04/02 03:26:20;;;;;;;12.67;7.27;;;;;;;7.76;57.10;94623.16;5000677;28;20474;-82
2021/04/02 03:28:49;;;;;;;12.20;8.20;;;;;;;7.74;57.48;94617.22;5035049;28;20443;-82
2021/04/02 03:31:16;;;;;;;10.13;6.93;;;;;;;7.76;56.79;94620.53;5035790;28;20533;-82
2021/04/02 03:33:50;;;;;;;8.70;6.73;;;;;;;7.77;57.33;94609.97;5035396;28;20780;-81
2021/04/02 03:36:20;;;;;;;10.73;7.03;;;;;;;7.79;56.93;94615.06;5033011;28;20454;-82
2021/04/02 03:38:48;;;;;;;13.07;7.67;;;;;;;7.84;56.78;94612.13;5035409;28;20431;-82
2021/04/02 03:41:18;;;;;;;10.07;8.00;;;;;;;7.89;56.90;94615.22;5035409;28;20441;-82
2021/04/02 03:43:47;;;;;;;15.30;8.73;;;;;;;7.88;57.34;94619.59;5016769;28;20449;-82
2021/04/02 03:46:17;;;;;;;10.23;8.20;;;;;;;7.88;57.02;94619.59;5034948;28;20481;-81
2021/04/02 03:48:45;;;;;;;16.90;8.53;;;;;;;7.83;57.24;94606.06;5034985;28;20450;-81
2021/04/02 03:51:16;;;;;;;10.17;6.77;;;;;;;7.85;57.52;94612.00;5035066;28;20447;-81
2021/04/02 03:53:47;;;;;;;12.10;7.90;;;;;;;7.81;57.70;94592.31;5034711;28;20915;-82
2021/04/02 03:56:16;;;;;;;8.17;7.13;;;;;;;7.85;57.33;94601.56;5034416;28;20447;-82
2021/04/02 03:58:46;;;;;;;8.50;7.30;;;;;;;7.87;57.35;94602.25;5036080;28;20451;-81
2021/04/02 04:01:16;;;;;;;12.43;7.57;;;;;;;7.92;57.36;94600.13;5035424;28;20812;-82
2021/04/02 04:03:45;;;;;;;9.40;6.80;;;;;;;7.88;57.60;94603.94;5033981;28;20481;-81
2021/04/02 04:06:15;;;;;;;9.63;7.20;;;;;;;7.84;57.15;94602.50;4999235;28;20481;-80
2021/04/02 04:08:43;;;;;;;10.03;6.87;;;;;;;7.83;57.63;94592.19;5034171;28;20447;-80
2021/04/02 04:11:11;;;;;;;13.90;7.60;;;;;;;7.87;57.14;94602.25;5034111;28;20451;-81
2021/04/02 04:13:39;;;;;;;10.03;8.93;;;;;;;7.88;57.07;94606.53;5034149;28;20435;-81
2021/04/02 04:16:08;;;;;;;9.40;6.37;;;;;;;7.87;57.59;94602.25;5034176;28;20443;-81
2021/04/02 04:18:36;;;;;;;14.87;7.03;;;;;;;7.91;57.80;94595.84;5034158;28;20446;-80
2021/04/02 04:21:05;;;;;;;9.23;7.10;;;;;;;7.96;57.33;94605.94;5035048;28;20428;-81
2021/04/02 04:23:33;;;;;;;12.10;7.40;;;;;;;7.99;57.70;94596.06;5034393;28;20942;-80
2021/04/02 04:26:01;;;;;;;11.93;7.10;;;;;;;8.03;57.22;94596.63;5036146;28;20478;-81
2021/04/02 04:28:28;;;;;;;7.70;6.20;;;;;;;8.15;57.36;94600.91;5034282;28;20434;-82
2021/04/02 04:31:00;;;;;;;13.83;6.40;;;;;;;8.20;57.18;94597.91;5034637;28;20513;-81
2021/04/02 04:33:29;;;;;;;9.07;7.37;;;;;;;8.27;56.97;94593.84;5033978;28;20479;-81
2021/04/02 04:35:59;;;;;;;13.50;7.73;;;;;;;8.43;56.30;94596.09;5034287;28;20447;-81
2021/04/02 04:38:26;;;;;;;14.30;8.80;;;;;;;8.51;56.32;94601.53;5035799;28;20491;-81
2021/04/02 04:40:54;;;;;;;12.07;7.70;;;;;;;8.55;56.49;94616.03;5035028;28;20437;-80
2021/04/02 04:43:21;;;;;;;13.80;7.60;;;;;;;8.49;56.63;94609.50;5034942;28;20446;-80
2021/04/02 04:45:48;;;;;;;12.27;7.10;;;;;;;8.52;56.26;94605.81;5033913;28;20507;-80
2021/04/02 04:48:14;;;;;;;15.60;8.20;;;;;;;8.55;56.65;94602.94;5034111;28;20432;-81
2021/04/02 04:50:42;;;;;;;20.23;8.93;;;;;;;8.62;55.87;94609.31;5033397;28;20451;-80
2021/04/02 04:53:14;;;;;;;17.37;7.87;;;;;;;8.61;56.45;94612.91;5034568;28;20445;-81
2021/04/02 04:55:42;;;;;;;22.60;9.07;;;;;;;8.65;56.09;94606.47;5034190;28;20453;-81
2021/04/02 04:58:11;;;;;;;30.43;12.50;;;;;;;8.33;57.00;94609.91;5033570;28;20428;-80
2021/04/02 05:00:39;;;;;;;34.57;14.30;;;;;;;8.19;58.05;94596.25;5033787;28;20450;-81
2021/04/02 05:03:07;;;;;;;44.20;20.77;;;;;;;8.09;59.07;94603.97;4998965;28;20525;-81
2021/04/02 05:05:37;;;;;;;50.60;25.10;;;;;;;7.52;61.00;94593.72;5033505;28;21015;-80
2021/04/02 05:08:07;;;;;;;50.90;26.97;;;;;;;7.65;60.31;94608.34;5033388;28;20450;-81
2021/04/02 05:10:36;;;;;;;68.77;26.03;;;;;;;7.70;59.55;94608.81;5033417;28;20461;-81
2021/04/02 05:13:03;;;;;;;44.97;23.90;;;;;;;7.87;59.83;94611.88;5033651;28;20942;-80
2021/04/02 05:15:30;;;;;;;52.67;25.57;;;;;;;8.01;59.20;94615.06;5034016;28;20443;-81
2021/04/02 05:17:57;;;;;;;42.03;18.70;;;;;;;8.07;57.78;94611.94;5015349;28;20488;-80
2021/04/02 05:20:33;;;;;;;25.60;16.20;;;;;;;8.13;56.74;94612.44;5033975;28;20439;-80
2021/04/02 05:22:59;;;;;;;30.83;16.80;;;;;;;8.15;56.24;94616.59;5033603;28;20473;-83
2021/04/02 05:25:25;;;;;;;29.90;18.40;;;;;;;8.32;55.59;94617.84;5034443;28;20486;-82
2021/04/02 05:27:53;;;;;;;30.30;16.27;;;;;;;8.34;54.69;94618.56;5033325;28;20446;-82
2021/04/02 05:30:20;;;;;;;32.77;14.53;;;;;;;8.52;53.62;94614.47;5033495;28;20431;-82
2021/04/02 05:32:46;;;;;;;24.70;14.30;;;;;;;8.67;52.78;94622.84;5033238;28;20445;-81
2021/04/02 05:35:13;;;;;;;23.60;13.90;;;;;;;8.85;52.28;94621.34;5014878;28;20951;-80
2021/04/02 05:37:40;;;;;;;29.00;16.27;;;;;;;9.31;52.31;94618.38;5033327;28;21005;-81
2021/04/02 05:40:07;;;;;;;40.67;14.80;;;;;;;9.96;51.33;94615.47;5032955;28;20446;-81
2021/04/02 05:42:39;;;;;;;45.70;22.03;;;;;;;10.61;48.82;94614.13;5033267;28;20452;-82
2021/04/02 05:45:08;;;;;;;40.10;21.10;;;;;;;11.20;48.30;94618.38;5033415;28;20483;-83
2021/04/02 05:47:35;;;;;;;43.67;21.27;;;;;;;11.87;46.42;94610.38;5020722;28;20464;-82
2021/04/02 05:50:02;;;;;;;43.70;23.30;;;;;;;12.44;45.20;94603.16;5038423;28;20474;-82
2021/04/02 05:52:29;;;;;;;52.97;25.80;;;;;;;12.92;44.06;94602.78;5037463;28;20536;-83
2021/04/02 05:55:00;;;;;;;34.33;21.80;;;;;;;13.33;42.28;94597.88;5037541;28;20431;-82
2021/04/02 05:57:27;;;;;;;28.90;19.20;;;;;;;13.73;41.02;94599.13;5037657;28;20450;-83
2021/04/02 05:59:55;;;;;;;35.27;20.40;;;;;;;13.89;40.75;94599.22;5037265;28;20443;-83
2021/04/02 06:02:22;;;;;;;27.63;16.77;;;;;;;13.84;40.48;94593.56;5037381;28;20489;-82
2021/04/02 06:04:49;;;;;;;28.77;17.93;;;;;;;14.07;40.31;94602.59;5037186;28;20513;-82
2021/04/02 06:07:15;;;;;;;34.67;17.83;;;;;;;14.47;39.90;94594.03;5036885;28;20454;-83
2021/04/02 06:09:41;;;;;;;29.57;17.23;;;;;;;14.91;38.78;94593.78;5036818;28;20458;-83
2021/04/02 06:12:10;;;;;;;28.73;16.37;;;;;;;15.19;37.80;94591.63;5037957;28;20502;-83
2021/04/02 06:14:36;;;;;;;38.40;18.77;;;;;;;15.54;37.63;94586.97;5005471;28;20461;-83
2021/04/02 06:17:03;;;;;;;28.63;18.73;;;;;;;15.78;36.54;94584.31;5038927;28;20449;-82
2021/04/02 06:19:48;;;;;;;25.47;15.97;;;;;;;16.00;35.65;94591.53;5039433;28;20441;-82
2021/04/02 06:22:15;;;;;;;22.90;16.00;;;;;;;16.14;35.33;94591.81;5037417;28;20436;-81
2021/04/02 06:24:43;;;;;;;26.30;16.57;;;;;;;16.31;35.34;94582.81;5036672;28;20464;-82
2021/04/02 06:27:11;;;;;;;34.03;17.93;;;;;;;16.53;35.13;94591.81;5036741;28;20438;-81
2021/04/02 06:29:39;;;;;;;28.70;14.57;;;;;;;16.72;33.58;94600.19;5037890;28;20454;-82
2021/04/02 06:32:08;;;;;;;35.93;19.40;;;;;;;16.70;34.42;94602.19;5037050;28;20545;-82
2021/04/02 06:34:45;;;;;;;33.60;19.80;;;;;;;16.80;34.42;94601.16;5037333;28;20467;-81
2021/04/02 06:37:11;;;;;;;30.83;20.40;;;;;;;16.73;34.20;94598.34;5036800;28;20466;-81
2021/04/02 06:39:38;;;;;;;21.43;17.87;;;;;;;16.71;34.31;94595.06;5036763;28;20519;-81
2021/04/02 06:42:08;;;;;;;35.40;20.17;;;;;;;16.90;33.21;94591.13;5037455;28;20519;-81
2021/04/02 06:44:35;;;;;;;25.93;18.53;;;;;;;16.91;32.71;94595.44;5037164;28;20773;-81
2021/04/02 06:47:01;;;;;;;30.20;16.77;;;;;;;17.02;33.11;94582.59;5040171;28;20555;-81
2021/04/02 06:49:27;;;;;;;22.23;16.23;;;;;;;17.12;32.92;94584.19;5037713;28;20454;-81
2021/04/02 06:51:56;;;;;;;26.23;15.00;;;;;;;17.18;33.55;94592.25;5037677;28;20454;-82
2021/04/02 06:54:24;;;;;;;28.60;15.10;;;;;;;17.34;32.75;94600.06;5051359;28;20442;-82
2021/04/02 06:56:58;;;;;;;26.03;17.00;;;;;;;17.28;32.88;94587.53;5036488;28;20437;-81
2021/04/02 06:59:26;;;;;;;16.40;12.60;;;;;;;17.32;32.99;94583.50;5036123;28;20929;-81
2021/04/02 07:01:54;;;;;;;20.30;12.07;;;;;;;17.53;33.22;94580.19;5036284;28;20487;-81
2021/04/02 07:04:23;;;;;;;21.03;12.17;;;;;;;17.68;32.66;94580.25;4985782;28;20445;-81
2021/04/02 07:06:51;;;;;;;15.37;10.80;;;;;;;17.83;31.31;94580.25;5036408;28;20495;-80
2021/04/02 07:09:23;;;;;;;15.87;10.43;;;;;;;18.08;31.78;94573.69;5036444;28;20450;-81
2021/04/02 07:11:53;;;;;;;27.03;10.70;;;;;;;18.26;31.50;94575.97;5036258;28;20881;-81
2021/04/02 07:14:20;;;;;;;19.07;10.63;;;;;;;18.24;31.58;94578.81;5035917;28;20451;-82
2021/04/02 07:16:47;;;;;;;18.83;11.40;;;;;;;18.37;31.54;94578.16;5037051;28;20447;-81
2021/04/02 07:19:14;;;;;;;12.67;9.60;;;;;;;18.65;31.34;94566.84;5003026;28;20450;-81
2021/04/02 07:22:12;;;;;;;14.53;10.03;;;;;;;18.67;30.63;94576.28;5040592;28;20465;-80
2021/04/02 07:24:40;;;;;;;16.37;11.27;;;;;;;18.64;31.50;94578.50;4994254;28;20509;-83
2021/04/02 07:27:07;;;;;;;19.67;11.00;;;;;;;18.45;31.72;94577.22;4993841;28;20539;-83
2021/04/02 07:29:36;;;;;;;13.00;10.17;;;;;;;18.41;31.17;94578.59;4994588;28;20853;-82
2021/04/02 07:32:07;;;;;;;12.03;9.50;;;;;;;18.30;31.39;94582.56;4994704;28;20449;-82
2021/04/02 07:34:33;;;;;;;16.17;8.97;;;;;;;18.08;32.00;94579.00;4994136;28;20945;-83
2021/04/02 07:37:00;;;;;;;14.20;9.73;;;;;;;17.98;32.73;94574.97;4994756;28;20798;-80
2021/04/02 07:39:30;;;;;;;16.33;11.13;;;;;;;18.17;32.83;94561.13;4994428;28;20476;-81
2021/04/02 07:41:58;;;;;;;12.97;9.00;;;;;;;18.32;32.55;94559.28;4994944;28;20451;-82
2021/04/02 07:44:24;;;;;;;25.43;13.10;;;;;;;18.57;32.48;94575.75;4994525;28;20821;-81
2021/04/02 07:47:07;;;;;;;14.80;10.70;;;;;;;18.35;32.52;94560.75;4993534;28;20920;-82
2021/04/02 07:49:34;;;;;;;22.23;9.20;;;;;;;18.50;32.71;94572.16;5021615;28;20495;-82
2021/04/02 07:52:00;;;;;;;16.83;9.00;;;;;;;17.94;32.34;94575.34;5037446;28;20829;-82
2021/04/02 07:54:33;;;;;;;18.10;10.23;;;;;;;17.91;32.91;94567.72;5037435;28;21081;-82
2021/04/02 07:57:08;;;;;;;12.57;8.87;;;;;;;18.00;33.10;94567.66;5036734;28;20927;-81
2021/04/02 07:59:36;;;;;;;13.20;9.57;;;;;;;17.90;33.49;94566.06;5036873;28;20457;-81
2021/04/02 08:02:04;;;;;;;15.70;9.50;;;;;;;17.90;33.96;94551.97;5036772;28;20984;-81
2021/04/02 08:04:36;;;;;;;13.70;9.73;;;;;;;17.93;34.15;94557.75;5036182;28;20450;-81
2021/04/02 08:07:03;;;;;;;17.50;11.23;;;;;;;17.83;34.66;94567.81;5035954;28;21095;-82
2021/04/02 08:09:29;;;;;;;15.83;9.87;;;;;;;17.87;33.99;94568.25;5034916;28;20427;-81
2021/04/02 08:11:58;;;;;;;18.23;11.20;;;;;;;18.02;34.00;94573.59;5034722;28;20445;-81
2021/04/02 08:14:33;;;;;;;12.10;9.23;;;;;;;17.86;33.60;94574.59;5036364;28;20438;-82
2021/04/02 08:17:00;;;;;;;22.83;11.07;;;;;;;17.96;34.57;94567.19;5038757;28;20992;-82
2021/04/02 08:19:28;;;;;;;19.97;11.50;;;;;;;18.04;33.99;94550.34;5039610;28;20819;-82
2021/04/02 08:21:57;;;;;;;19.33;11.27;;;;;;;18.05;33.80;94560.78;5036433;28;20473;-82
2021/04/02 08:24:24;;;;;;;40.00;13.83;;;;;;;17.98;34.66;94556.38;5035157;28;20865;-82
2021/04/02 08:26:51;;;;;;;25.13;10.47;;;;;;;18.17;34.03;94558.47;5035456;28;20555;-82
2021/04/02 08:29:20;;;;;;;16.97;9.80;;;;;;;18.18;34.95;94558.28;5035405;28;20557;-82
2021/04/02 08:31:50;;;;;;;19.63;10.43;;;;;;;18.46;34.61;94544.31;5035170;28;20559;-82
2021/04/02 08:34:19;;;;;;;12.87;10.03;;;;;;;18.55;34.09;94543.22;5034948;28;20780;-82
2021/04/02 08:36:47;;;;;;;17.33;10.30;;;;;;;18.68;33.77;94548.69;5034481;28;20458;-82
2021/04/02 08:39:14;;;;;;;16.93;10.17;;;;;;;18.52;34.20;94547.06;5034347;28;20537;-82
2021/04/02 08:41:41;;;;;;;15.53;9.50;;;;;;;18.65;34.06;94558.88;5034388;28;20942;-82
2021/04/02 08:44:07;;;;;;;17.30;11.10;;;;;;;18.86;34.55;94548.28;5034562;28;20587;-82
2021/04/02 08:46:36;;;;;;;16.37;10.43;;;;;;;19.00;34.24;94544.72;5035125;28;20499;-83
2021/04/02 08:49:05;;;;;;;13.07;9.47;;;;;;;18.92;33.68;94544.84;5036116;28;20447;-82
2021/04/02 08:51:32;;;;;;;18.10;11.20;;;;;;;18.58;33.93;94559.59;5034203;28;21000;-82
2021/04/02 08:53:58;;;;;;;21.13;10.77;;;;;;;18.18;34.84;94552.13;5035217;28;20435;-81
2021/04/02 08:56:27;;;;;;;18.83;10.07;;;;;;;18.03;35.30;94554.81;5034478;28;20438;-81
2021/04/02 08:58:54;;;;;;;27.73;12.47;;;;;;;18.25;35.02;94566.34;5033500;28;20839;-81
2021/04/02 09:01:21;;;;;;;22.57;11.90;;;;;;;17.93;36.02;94554.28;5033538;28;20451;-82
2021/04/02 09:03:49;;;;;;;20.20;11.20;;;;;;;17.71;36.11;94549.88;5033834;28;20485;-82
2021/04/02 09:06:17;;;;;;;23.43;12.10;;;;;;;17.92;36.36;94547.31;5033568;28;20490;-81
2021/04/02 09:08:43;;;;;;;29.30;12.77;;;;;;;18.06;35.45;94549.13;5033050;28;20937;-81
2021/04/02 09:11:11;;;;;;;19.37;12.03;;;;;;;18.11;35.03;94543.28;5033678;28;20798;-82
2021/04/02 09:13:38;;;;;;;25.30;13.50;;;;;;;18.13;34.71;94535.94;5033328;28;20968;-81
2021/04/02 09:16:09;;;;;;;37.20;13.90;;;;;;;18.35;35.13;94532.34;5033763;28;20468;-81
2021/04/02 09:18:46;;;;;;;25.27;12.80;;;;;;;18.23;35.52;94531.19;5033562;28;20542;-81
2021/04/02 09:21:14;;;;;;;23.23;13.60;;;;;;;18.07;35.28;94528.72;5036833;28;20441;-81
2021/04/02 09:23:41;;;;;;;16.23;12.60;;;;;;;18.19;35.95;94514.78;5019399;28;20445;-82
2021/04/02 09:26:09;;;;;;;23.50;13.83;;;;;;;18.49;35.46;94528.00;5037432;28;20585;-82
2021/04/02 09:28:37;;;;;;;24.40;14.90;;;;;;;18.79;35.35;94523.44;5037418;28;20453;-81
2021/04/02 09:31:21;;;;;;;29.33;14.37;;;;;;;18.98;34.82;94519.34;5037485;28;20452;-81
2021/04/02 09:33:51;;;;;;;39.77;15.90;;;;;;;19.13;34.86;94520.94;5019434;28;20447;-81
2021/04/02 09:36:22;;;;;;;23.83;13.73;;;;;;;19.31;34.63;94519.63;5037105;28;20518;-81
2021/04/02 09:38:49;;;;;;;29.80;14.63;;;;;;;19.43;34.73;94523.41;5037422;28;20516;-82
2021/04/02 09:41:22;;;;;;;23.77;14.00;;;;;;;19.51;34.25;94528.59;5037079;28;20440;-81
2021/04/02 09:43:50;;;;;;;33.30;15.83;;;;;;;19.52;34.53;94522.25;5036978;28;20447;-82
2021/04/02 09:46:29;;;;;;;23.80;14.23;;;;;;;19.57;34.20;94511.88;5036565;28;20580;-82
2021/04/02 09:49:08;;;;;;;28.53;14.20;;;;;;;19.60;34.26;94508.81;5036901;28;20474;-82
2021/04/02 09:51:38;;;;;;;29.83;15.50;;;;;;;19.40;34.65;94499.88;5036500;28;20458;-82
2021/04/02 09:54:06;;;;;;;23.60;13.57;;;;;;;19.37;35.81;94500.22;5037043;28;20781;-81
2021/04/02 09:56:32;;;;;;;21.57;12.93;;;;;;;19.64;36.73;94507.41;5036620;28;20991;-81
2021/04/02 09:58:59;;;;;;;27.47;13.03;;;;;;;19.87;35.40;94507.16;5036535;28;20444;-82
2021/04/02 10:01:26;;;;;;;27.90;13.07;;;;;;;19.98;36.40;94503.13;5037035;28;20433;-82
2021/04/02 10:03:52;;;;;;;10.90;8.70;;;;;;;20.01;37.55;94502.72;5036912;28;20478;-82
2021/04/02 10:06:19;;;;;;;19.47;11.73;;;;;;;19.87;37.72;94490.34;5036831;28;20500;-82
2021/04/02 10:08:46;;;;;;;24.73;8.43;;;;;;;19.61;38.16;94494.50;5036117;28;20448;-82
2021/04/02 10:11:14;;;;;;;13.77;10.07;;;;;;;19.52;38.79;94495.63;5036201;28;20460;-82
2021/04/02 10:13:40;;;;;;;11.17;8.60;;;;;;;19.47;39.13;94503.38;5036137;28;20906;-82
2021/04/02 10:16:07;;;;;;;10.27;7.13;;;;;;;19.44;39.11;94503.78;5018379;28;20447;-83
2021/04/02 10:18:35;;;;;;;10.27;8.37;;;;;;;19.35;39.46;94510.22;5017829;28;20428;-82
2021/04/02 10:21:03;;;;;;;11.03;7.17;;;;;;;19.29;39.63;94503.03;5036550;28;20442;-82
2021/04/02 10:23:29;;;;;;;17.57;7.23;;;;;;;19.14;40.92;94521.75;5036742;28;20543;-80
2021/04/02 10:25:56;;;;;;;15.20;6.93;;;;;;;19.08;40.52;94515.38;5036384;28;20491;-82
2021/04/02 10:28:23;;;;;;;15.73;7.47;;;;;;;19.16;41.17;94533.84;5036019;28;20519;-82
2021/04/02 10:30:50;;;;;;;16.63;6.60;;;;;;;18.93;41.66;94530.56;5036183;28;20454;-82
2021/04/02 10:33:18;;;;;;;16.97;7.30;;;;;;;18.79;42.48;94524.28;5035921;28;20455;-82
2021/04/02 10:35:45;;;;;;;27.30;8.30;;;;;;;18.71;42.67;94531.53;5035969;28;20943;-82
2021/04/02 10:38:12;;;;;;;17.53;8.20;;;;;;;18.54;43.69;94538.91;5035931;28;20466;-82
2021/04/02 10:40:39;;;;;;;15.33;8.27;;;;;;;18.30;44.62;94553.34;5035574;28;20447;-82
2021/04/02 10:43:06;;;;;;;16.50;8.70;;;;;;;18.06;46.50;94570.38;5035634;28;20882;-82
2021/04/02 10:45:34;;;;;;;17.80;9.97;;;;;;;17.71;49.38;94569.28;5035885;28;20474;-82
2021/04/02 10:48:01;;;;;;;22.83;9.70;;;;;;;17.37;53.17;94575.03;5035820;28;20912;-82
2021/04/02 10:50:29;;;;;;;23.13;11.80;;;;;;;17.10;60.09;94589.69;5035279;28;20451;-82
2021/04/02 10:52:55;;;;;;;16.90;8.93;;;;;;;16.81;60.91;94589.53;5035828;28;20455;-82
2021/04/02 10:55:22;;;;;;;11.73;8.20;;;;;;;16.53;62.70;94603.25;5035302;28;20451;-82
2021/04/02 10:57:49;;;;;;;12.00;9.17;;;;;;;16.31;65.31;94602.19;5035385;28;20439;-82
2021/04/02 11:00:19;;;;;;;11.67;7.97;;;;;;;16.09;63.92;94595.81;5035226;28;20471;-82
2021/04/02 11:02:47;;;;;;;16.40;9.60;;;;;;;15.87;66.49;94595.69;5035556;28;20482;-82
2021/04/02 11:05:13;;;;;;;14.90;8.20;;;;;;;15.73;66.97;94599.88;5035300;28;20455;-82
2021/04/02 11:07:40;;;;;;;11.50;9.10;;;;;;;15.55;67.23;94594.75;5035334;28;20451;-82
2021/04/02 11:10:09;;;;;;;10.53;9.50;;;;;;;15.51;69.36;94601.38;5035500;28;20447;-82
2021/04/02 11:12:35;;;;;;;14.33;11.47;;;;;;;15.45;70.58;94602.88;5035159;28;20456;-82
2021/04/02 11:15:04;;;;;;;16.73;12.40;;;;;;;15.34;73.16;94597.94;5035132;28;20468;-82
2021/04/02 11:17:31;;;;;;;12.47;10.90;;;;;;;15.25;74.43;94596.25;5034820;28;20443;-82
2021/04/02 11:19:59;;;;;;;17.50;14.17;;;;;;;15.19;77.53;94584.53;5034928;28;20423;-82
2021/04/02 11:22:26;;;;;;;16.90;13.40;;;;;;;15.13;77.22;94576.44;5034703;28;20441;-82
2021/04/02 11:24:55;;;;;;;20.07;13.33;;;;;;;15.13;77.63;94563.22;5016641;28;20500;-82
2021/04/02 11:27:22;;;;;;;24.83;15.97;;;;;;;15.18;77.72;94553.81;5000174;28;20480;-82
2021/04/02 11:29:48;;;;;;;19.13;14.17;;;;;;;15.34;80.03;94542.41;5034571;28;20469;-82
2021/04/02 11:32:15;;;;;;;19.33;14.00;;;;;;;15.51;80.84;94548.47;5034350;28;20459;-82